sensor_id;sensor_type;location;lat;lon;timestamp;temperature;humidity
59961;DHT22;55902;-37.980;-63.602;2023-07-29T00:01:41;9.20;99.90
59961;DHT22;55902;-37.980;-63.602;2023-07-29T00:04:08;9.20;99.90
59961;DHT22;55902;-37.980;-63.602;2023-07-29T00:06:36;9.20;99.90
59961;DHT22;55902;-37.980;-63.602;2023-07-29T00:09:03;9.20;99.90
59961;DHT22;55902;-37.980;-63.602;2023-07-29T00:11:30;9.20;99.90
59961;DHT22;55902;-37.980;-63.602;2023-07-29T00:14:03;9.20;99.90
59961;DHT22;55902;-37.980;-63.602;2023-07-29T00:16:31;9.20;99.90
59961;DHT22;55902;-37.980;-63.602;2023-07-29T00:18:58;9.30;99.90
59961;DHT22;55902;-37.980;-63.602;2023-07-29T00:21:26;9.30;99.90
59961;DHT22;55902;-37.980;-63.602;2023-07-29T00:23:53;9.30;99.90
59961;DHT22;55902;-37.980;-63.602;2023-07-29T00:26:20;9.30;99.90
59961;DHT22;55902;-37.980;-63.602;2023-07-29T00:28:48;9.30;99.90
59961;DHT22;55902;-37.980;-63.602;2023-07-29T00:31:15;9.40;99.90
59961;DHT22;55902;-37.980;-63.602;2023-07-29T00:33:42;9.40;99.90
59961;DHT22;55902;-37.980;-63.602;2023-07-29T00:36:09;9.40;99.90
59961;DHT22;55902;-37.980;-63.602;2023-07-29T00:38:36;9.40;99.90
59961;DHT22;55902;-37.980;-63.602;2023-07-29T00:51:09;9.40;99.90
59961;DHT22;55902;-37.980;-63.602;2023-07-29T00:53:36;9.40;99.90
59961;DHT22;55902;-37.980;-63.602;2023-07-29T00:56:04;9.30;99.90
59961;DHT22;55902;-37.980;-63.602;2023-07-29T00:58:31;9.30;99.90
59961;DHT22;55902;-37.980;-63.602;2023-07-29T01:00:58;9.30;99.90
59961;DHT22;55902;-37.980;-63.602;2023-07-29T01:03:26;9.30;99.90
59961;DHT22;55902;-37.980;-63.602;2023-07-29T01:06:29;9.20;99.90
59961;DHT22;55902;-37.980;-63.602;2023-07-29T01:09:04;9.20;99.90
59961;DHT22;55902;-37.980;-63.602;2023-07-29T01:11:44;9.10;99.90
59961;DHT22;55902;-37.980;-63.602;2023-07-29T01:14:29;9.10;99.90
59961;DHT22;55902;-37.980;-63.602;2023-07-29T01:17:09;9.10;99.90
59961;DHT22;55902;-37.980;-63.602;2023-07-29T01:22:14;9.00;99.90
59961;DHT22;55902;-37.980;-63.602;2023-07-29T01:24:42;9.00;99.90
59961;DHT22;55902;-37.980;-63.602;2023-07-29T01:27:09;9.00;99.90
59961;DHT22;55902;-37.980;-63.602;2023-07-29T01:29:36;9.00;99.90
59961;DHT22;55902;-37.980;-63.602;2023-07-29T01:32:11;9.00;99.90
59961;DHT22;55902;-37.980;-63.602;2023-07-29T01:34:56;8.90;99.90
59961;DHT22;55902;-37.980;-63.602;2023-07-29T01:37:28;8.90;99.90
59961;DHT22;55902;-37.980;-63.602;2023-07-29T01:39:58;8.90;99.90
59961;DHT22;55902;-37.980;-63.602;2023-07-29T01:42:26;9.00;99.90
59961;DHT22;55902;-37.980;-63.602;2023-07-29T01:44:53;9.00;99.90
59961;DHT22;55902;-37.980;-63.602;2023-07-29T01:47:21;9.10;99.90
59961;DHT22;55902;-37.980;-63.602;2023-07-29T01:49:49;9.10;99.90
59961;DHT22;55902;-37.980;-63.602;2023-07-29T01:52:16;9.20;99.90
59961;DHT22;55902;-37.980;-63.602;2023-07-29T01:54:43;9.20;99.90
59961;DHT22;55902;-37.980;-63.602;2023-07-29T01:57:10;9.20;99.90
59961;DHT22;55902;-37.980;-63.602;2023-07-29T01:59:37;9.20;99.90
59961;DHT22;55902;-37.980;-63.602;2023-07-29T02:02:04;9.20;99.90
59961;DHT22;55902;-37.980;-63.602;2023-07-29T02:04:31;9.30;99.90
59961;DHT22;55902;-37.980;-63.602;2023-07-29T02:06:58;9.20;99.90
59961;DHT22;55902;-37.980;-63.602;2023-07-29T02:09:25;9.20;99.90
59961;DHT22;55902;-37.980;-63.602;2023-07-29T02:11:53;9.20;99.90
59961;DHT22;55902;-37.980;-63.602;2023-07-29T02:14:21;9.20;99.90
59961;DHT22;55902;-37.980;-63.602;2023-07-29T02:16:48;9.20;99.90
59961;DHT22;55902;-37.980;-63.602;2023-07-29T02:19:16;9.30;99.90
59961;DHT22;55902;-37.980;-63.602;2023-07-29T02:21:43;9.30;99.90
59961;DHT22;55902;-37.980;-63.602;2023-07-29T02:24:10;9.30;99.90
59961;DHT22;55902;-37.980;-63.602;2023-07-29T02:26:37;9.30;99.90
59961;DHT22;55902;-37.980;-63.602;2023-07-29T02:29:04;9.30;99.90
59961;DHT22;55902;-37.980;-63.602;2023-07-29T02:31:31;9.40;99.90
59961;DHT22;55902;-37.980;-63.602;2023-07-29T02:34:00;9.30;99.90
59961;DHT22;55902;-37.980;-63.602;2023-07-29T02:36:27;9.40;99.90
59961;DHT22;55902;-37.980;-63.602;2023-07-29T02:38:55;9.30;99.90
59961;DHT22;55902;-37.980;-63.602;2023-07-29T02:41:22;9.30;99.90
59961;DHT22;55902;-37.980;-63.602;2023-07-29T02:43:50;9.30;99.90
59961;DHT22;55902;-37.980;-63.602;2023-07-29T02:46:18;9.30;99.90
59961;DHT22;55902;-37.980;-63.602;2023-07-29T02:48:45;9.30;99.90
59961;DHT22;55902;-37.980;-63.602;2023-07-29T02:51:12;9.30;99.90
59961;DHT22;55902;-37.980;-63.602;2023-07-29T02:53:39;9.30;99.90
59961;DHT22;55902;-37.980;-63.602;2023-07-29T02:56:06;9.20;99.90
59961;DHT22;55902;-37.980;-63.602;2023-07-29T02:58:36;9.20;99.90
59961;DHT22;55902;-37.980;-63.602;2023-07-29T03:01:04;9.20;99.90
59961;DHT22;55902;-37.980;-63.602;2023-07-29T03:03:32;9.10;99.90
59961;DHT22;55902;-37.980;-63.602;2023-07-29T03:06:01;9.10;99.90
59961;DHT22;55902;-37.980;-63.602;2023-07-29T03:08:28;9.00;99.90
59961;DHT22;55902;-37.980;-63.602;2023-07-29T03:10:57;9.00;99.90
59961;DHT22;55902;-37.980;-63.602;2023-07-29T03:13:24;9.00;99.90
59961;DHT22;55902;-37.980;-63.602;2023-07-29T03:15:51;9.00;99.90
59961;DHT22;55902;-37.980;-63.602;2023-07-29T03:18:18;9.00;99.90
59961;DHT22;55902;-37.980;-63.602;2023-07-29T03:20:45;9.00;99.90
59961;DHT22;55902;-37.980;-63.602;2023-07-29T03:26:34;9.00;99.90
59961;DHT22;55902;-37.980;-63.602;2023-07-29T03:29:02;8.90;99.90
59961;DHT22;55902;-37.980;-63.602;2023-07-29T03:31:31;8.90;99.90
59961;DHT22;55902;-37.980;-63.602;2023-07-29T03:33:58;8.90;99.90
59961;DHT22;55902;-37.980;-63.602;2023-07-29T03:36:25;8.80;99.90
59961;DHT22;55902;-37.980;-63.602;2023-07-29T03:38:52;8.80;99.90
59961;DHT22;55902;-37.980;-63.602;2023-07-29T03:41:20;8.80;99.90
59961;DHT22;55902;-37.980;-63.602;2023-07-29T03:43:47;8.80;99.90
59961;DHT22;55902;-37.980;-63.602;2023-07-29T03:46:15;8.80;99.90
59961;DHT22;55902;-37.980;-63.602;2023-07-29T03:48:45;8.70;99.90
59961;DHT22;55902;-37.980;-63.602;2023-07-29T03:51:13;8.70;99.90
59961;DHT22;55902;-37.980;-63.602;2023-07-29T03:53:40;8.70;99.90
59961;DHT22;55902;-37.980;-63.602;2023-07-29T03:56:07;8.70;99.90
59961;DHT22;55902;-37.980;-63.602;2023-07-29T03:58:34;8.70;99.90
59961;DHT22;55902;-37.980;-63.602;2023-07-29T04:01:01;8.80;99.90
59961;DHT22;55902;-37.980;-63.602;2023-07-29T04:03:31;8.80;99.90
59961;DHT22;55902;-37.980;-63.602;2023-07-29T04:05:58;8.80;99.90
59961;DHT22;55902;-37.980;-63.602;2023-07-29T04:08:25;8.80;99.90
59961;DHT22;55902;-37.980;-63.602;2023-07-29T04:10:52;8.90;99.90
59961;DHT22;55902;-37.980;-63.602;2023-07-29T04:13:20;8.90;99.90
59961;DHT22;55902;-37.980;-63.602;2023-07-29T04:15:47;8.90;99.90
59961;DHT22;55902;-37.980;-63.602;2023-07-29T04:18:14;9.00;99.90
59961;DHT22;55902;-37.980;-63.602;2023-07-29T04:20:41;9.00;99.90
59961;DHT22;55902;-37.980;-63.602;2023-07-29T04:23:08;9.00;99.90
59961;DHT22;55902;-37.980;-63.602;2023-07-29T04:25:35;9.10;99.90
59961;DHT22;55902;-37.980;-63.602;2023-07-29T04:28:02;9.10;99.90
59961;DHT22;55902;-37.980;-63.602;2023-07-29T04:30:31;9.10;99.90
59961;DHT22;55902;-37.980;-63.602;2023-07-29T04:32:58;9.10;99.90
59961;DHT22;55902;-37.980;-63.602;2023-07-29T04:35:25;9.10;99.90
59961;DHT22;55902;-37.980;-63.602;2023-07-29T04:37:52;9.00;99.90
59961;DHT22;55902;-37.980;-63.602;2023-07-29T04:40:19;9.00;99.90
59961;DHT22;55902;-37.980;-63.602;2023-07-29T04:42:46;8.90;99.90
59961;DHT22;55902;-37.980;-63.602;2023-07-29T04:45:13;8.90;99.90
59961;DHT22;55902;-37.980;-63.602;2023-07-29T04:47:40;8.80;99.90
59961;DHT22;55902;-37.980;-63.602;2023-07-29T04:50:08;8.80;99.90
59961;DHT22;55902;-37.980;-63.602;2023-07-29T04:52:35;8.80;99.90
59961;DHT22;55902;-37.980;-63.602;2023-07-29T04:58:24;8.80;99.90
59961;DHT22;55902;-37.980;-63.602;2023-07-29T05:00:51;8.80;99.90
59961;DHT22;55902;-37.980;-63.602;2023-07-29T05:03:18;8.80;99.90
59961;DHT22;55902;-37.980;-63.602;2023-07-29T05:05:45;8.80;99.90
59961;DHT22;55902;-37.980;-63.602;2023-07-29T05:08:12;8.80;99.90
59961;DHT22;55902;-37.980;-63.602;2023-07-29T05:10:39;8.90;99.90
59961;DHT22;55902;-37.980;-63.602;2023-07-29T05:13:07;8.90;99.90
59961;DHT22;55902;-37.980;-63.602;2023-07-29T05:15:34;9.00;99.90
59961;DHT22;55902;-37.980;-63.602;2023-07-29T05:18:01;9.00;99.90
59961;DHT22;55902;-37.980;-63.602;2023-07-29T05:20:28;9.10;99.90
59961;DHT22;55902;-37.980;-63.602;2023-07-29T05:22:58;9.10;99.90
59961;DHT22;55902;-37.980;-63.602;2023-07-29T05:25:25;9.20;99.90
59961;DHT22;55902;-37.980;-63.602;2023-07-29T05:27:52;9.10;99.90
59961;DHT22;55902;-37.980;-63.602;2023-07-29T05:30:19;9.10;99.90
59961;DHT22;55902;-37.980;-63.602;2023-07-29T05:32:46;9.10;99.90
59961;DHT22;55902;-37.980;-63.602;2023-07-29T05:35:13;9.10;99.90
59961;DHT22;55902;-37.980;-63.602;2023-07-29T05:37:43;9.20;99.90
59961;DHT22;55902;-37.980;-63.602;2023-07-29T05:40:10;9.20;99.90
59961;DHT22;55902;-37.980;-63.602;2023-07-29T05:42:37;9.30;99.90
59961;DHT22;55902;-37.980;-63.602;2023-07-29T05:45:05;9.30;99.90
59961;DHT22;55902;-37.980;-63.602;2023-07-29T05:47:32;9.30;99.90
59961;DHT22;55902;-37.980;-63.602;2023-07-29T05:49:59;9.30;99.90
59961;DHT22;55902;-37.980;-63.602;2023-07-29T05:52:31;9.30;99.90
59961;DHT22;55902;-37.980;-63.602;2023-07-29T05:58:20;9.30;99.90
59961;DHT22;55902;-37.980;-63.602;2023-07-29T06:00:47;9.30;99.90
59961;DHT22;55902;-37.980;-63.602;2023-07-29T06:03:15;9.20;99.90
59961;DHT22;55902;-37.980;-63.602;2023-07-29T06:05:42;9.20;99.90
59961;DHT22;55902;-37.980;-63.602;2023-07-29T06:08:09;9.20;99.90
59961;DHT22;55902;-37.980;-63.602;2023-07-29T06:10:37;9.10;99.90
59961;DHT22;55902;-37.980;-63.602;2023-07-29T06:13:04;9.10;99.90
59961;DHT22;55902;-37.980;-63.602;2023-07-29T06:15:32;9.20;99.90
59961;DHT22;55902;-37.980;-63.602;2023-07-29T06:17:59;9.20;99.90
59961;DHT22;55902;-37.980;-63.602;2023-07-29T06:20:26;9.30;99.90
59961;DHT22;55902;-37.980;-63.602;2023-07-29T06:22:53;9.40;99.90
59961;DHT22;55902;-37.980;-63.602;2023-07-29T06:25:20;9.50;99.90
59961;DHT22;55902;-37.980;-63.602;2023-07-29T06:27:48;9.50;99.90
59961;DHT22;55902;-37.980;-63.602;2023-07-29T06:30:15;9.60;99.90
59961;DHT22;55902;-37.980;-63.602;2023-07-29T06:32:42;9.50;99.90
59961;DHT22;55902;-37.980;-63.602;2023-07-29T06:35:09;9.50;99.90
59961;DHT22;55902;-37.980;-63.602;2023-07-29T06:37:36;9.40;99.90
59961;DHT22;55902;-37.980;-63.602;2023-07-29T06:40:04;9.40;99.90
59961;DHT22;55902;-37.980;-63.602;2023-07-29T06:42:31;9.60;99.90
59961;DHT22;55902;-37.980;-63.602;2023-07-29T06:45:01;9.60;99.90
59961;DHT22;55902;-37.980;-63.602;2023-07-29T06:47:28;9.50;99.90
59961;DHT22;55902;-37.980;-63.602;2023-07-29T06:49:55;9.60;99.90
59961;DHT22;55902;-37.980;-63.602;2023-07-29T06:52:23;9.60;99.90
59961;DHT22;55902;-37.980;-63.602;2023-07-29T06:54:50;9.60;99.90
59961;DHT22;55902;-37.980;-63.602;2023-07-29T06:57:17;9.70;99.90
59961;DHT22;55902;-37.980;-63.602;2023-07-29T06:59:44;9.70;99.90
59961;DHT22;55902;-37.980;-63.602;2023-07-29T07:02:11;9.70;99.90
59961;DHT22;55902;-37.980;-63.602;2023-07-29T07:04:38;9.70;99.90
59961;DHT22;55902;-37.980;-63.602;2023-07-29T07:07:05;9.80;99.90
59961;DHT22;55902;-37.980;-63.602;2023-07-29T07:09:32;9.80;99.90
59961;DHT22;55902;-37.980;-63.602;2023-07-29T07:11:59;9.80;99.90
59961;DHT22;55902;-37.980;-63.602;2023-07-29T07:14:26;9.80;99.90
59961;DHT22;55902;-37.980;-63.602;2023-07-29T07:16:53;9.70;99.90
59961;DHT22;55902;-37.980;-63.602;2023-07-29T07:19:20;9.70;99.90
59961;DHT22;55902;-37.980;-63.602;2023-07-29T07:21:47;9.70;99.90
59961;DHT22;55902;-37.980;-63.602;2023-07-29T07:24:14;9.70;99.90
59961;DHT22;55902;-37.980;-63.602;2023-07-29T07:26:41;9.60;99.90
59961;DHT22;55902;-37.980;-63.602;2023-07-29T07:29:08;9.60;99.90
59961;DHT22;55902;-37.980;-63.602;2023-07-29T07:31:35;9.60;99.90
59961;DHT22;55902;-37.980;-63.602;2023-07-29T07:34:05;9.60;99.90
59961;DHT22;55902;-37.980;-63.602;2023-07-29T07:36:32;9.70;99.90
59961;DHT22;55902;-37.980;-63.602;2023-07-29T07:38:59;9.80;99.90
59961;DHT22;55902;-37.980;-63.602;2023-07-29T07:41:26;9.90;99.90
59961;DHT22;55902;-37.980;-63.602;2023-07-29T07:43:53;10.10;99.90
59961;DHT22;55902;-37.980;-63.602;2023-07-29T07:46:20;10.10;99.90
59961;DHT22;55902;-37.980;-63.602;2023-07-29T07:48:47;10.10;99.90
59961;DHT22;55902;-37.980;-63.602;2023-07-29T07:51:14;10.10;99.90
59961;DHT22;55902;-37.980;-63.602;2023-07-29T07:53:41;10.10;99.90
59961;DHT22;55902;-37.980;-63.602;2023-07-29T07:56:08;10.00;99.90
59961;DHT22;55902;-37.980;-63.602;2023-07-29T07:58:35;10.00;99.90
59961;DHT22;55902;-37.980;-63.602;2023-07-29T08:01:04;10.00;99.90
59961;DHT22;55902;-37.980;-63.602;2023-07-29T08:03:31;9.90;99.90
59961;DHT22;55902;-37.980;-63.602;2023-07-29T08:05:58;10.00;99.90
59961;DHT22;55902;-37.980;-63.602;2023-07-29T08:08:28;10.00;99.90
59961;DHT22;55902;-37.980;-63.602;2023-07-29T08:10:57;10.00;99.90
59961;DHT22;55902;-37.980;-63.602;2023-07-29T08:13:24;10.00;99.90
59961;DHT22;55902;-37.980;-63.602;2023-07-29T08:15:54;10.00;99.90
59961;DHT22;55902;-37.980;-63.602;2023-07-29T08:18:21;10.00;99.90
59961;DHT22;55902;-37.980;-63.602;2023-07-29T08:20:58;10.00;99.90
59961;DHT22;55902;-37.980;-63.602;2023-07-29T08:23:28;10.00;99.90
59961;DHT22;55902;-37.980;-63.602;2023-07-29T08:26:00;10.00;99.90
59961;DHT22;55902;-37.980;-63.602;2023-07-29T08:28:34;9.90;99.90
59961;DHT22;55902;-37.980;-63.602;2023-07-29T08:31:02;9.80;99.90
59961;DHT22;55902;-37.980;-63.602;2023-07-29T08:33:30;9.80;99.90
59961;DHT22;55902;-37.980;-63.602;2023-07-29T08:36:00;9.80;99.90
59961;DHT22;55902;-37.980;-63.602;2023-07-29T08:38:28;9.80;99.90
59961;DHT22;55902;-37.980;-63.602;2023-07-29T08:43:48;9.70;99.90
59961;DHT22;55902;-37.980;-63.602;2023-07-29T08:46:20;9.70;99.90
59961;DHT22;55902;-37.980;-63.602;2023-07-29T08:48:47;9.70;99.90
59961;DHT22;55902;-37.980;-63.602;2023-07-29T08:51:15;9.70;99.90
59961;DHT22;55902;-37.980;-63.602;2023-07-29T08:53:42;9.70;99.90
59961;DHT22;55902;-37.980;-63.602;2023-07-29T08:56:09;9.60;99.90
59961;DHT22;55902;-37.980;-63.602;2023-07-29T08:58:37;9.70;99.90
59961;DHT22;55902;-37.980;-63.602;2023-07-29T09:01:05;9.60;99.90
59961;DHT22;55902;-37.980;-63.602;2023-07-29T09:03:32;9.60;99.90
59961;DHT22;55902;-37.980;-63.602;2023-07-29T09:05:59;9.60;99.90
59961;DHT22;55902;-37.980;-63.602;2023-07-29T09:08:28;9.60;99.90
59961;DHT22;55902;-37.980;-63.602;2023-07-29T09:10:56;9.50;99.90
59961;DHT22;55902;-37.980;-63.602;2023-07-29T09:13:23;9.50;99.90
59961;DHT22;55902;-37.980;-63.602;2023-07-29T09:15:55;9.50;99.90
59961;DHT22;55902;-37.980;-63.602;2023-07-29T09:18:22;9.50;99.90
59961;DHT22;55902;-37.980;-63.602;2023-07-29T09:20:50;9.40;99.90
59961;DHT22;55902;-37.980;-63.602;2023-07-29T09:23:17;9.50;99.90
59961;DHT22;55902;-37.980;-63.602;2023-07-29T09:25:47;9.50;99.90
59961;DHT22;55902;-37.980;-63.602;2023-07-29T09:28:15;9.50;99.90
59961;DHT22;55902;-37.980;-63.602;2023-07-29T09:30:46;9.50;99.90
59961;DHT22;55902;-37.980;-63.602;2023-07-29T09:33:13;9.50;99.90
59961;DHT22;55902;-37.980;-63.602;2023-07-29T09:35:40;9.50;99.90
59961;DHT22;55902;-37.980;-63.602;2023-07-29T09:38:07;9.50;99.90
59961;DHT22;55902;-37.980;-63.602;2023-07-29T09:40:39;9.50;99.90
59961;DHT22;55902;-37.980;-63.602;2023-07-29T09:43:09;9.50;99.90
59961;DHT22;55902;-37.980;-63.602;2023-07-29T09:45:37;9.50;99.90
59961;DHT22;55902;-37.980;-63.602;2023-07-29T09:48:05;9.40;99.90
59961;DHT22;55902;-37.980;-63.602;2023-07-29T09:50:36;9.40;99.90
59961;DHT22;55902;-37.980;-63.602;2023-07-29T09:53:03;9.50;99.90
59961;DHT22;55902;-37.980;-63.602;2023-07-29T09:55:33;9.50;99.90
59961;DHT22;55902;-37.980;-63.602;2023-07-29T09:58:01;9.50;99.90
59961;DHT22;55902;-37.980;-63.602;2023-07-29T10:00:34;9.60;99.90
59961;DHT22;55902;-37.980;-63.602;2023-07-29T10:03:02;9.60;99.90
59961;DHT22;55902;-37.980;-63.602;2023-07-29T10:05:29;9.60;99.90
59961;DHT22;55902;-37.980;-63.602;2023-07-29T10:07:57;9.60;99.90
59961;DHT22;55902;-37.980;-63.602;2023-07-29T10:10:24;9.70;99.90
59961;DHT22;55902;-37.980;-63.602;2023-07-29T10:12:51;9.70;99.90
59961;DHT22;55902;-37.980;-63.602;2023-07-29T10:15:21;9.70;99.90
59961;DHT22;55902;-37.980;-63.602;2023-07-29T10:17:52;9.70;99.90
59961;DHT22;55902;-37.980;-63.602;2023-07-29T10:20:19;9.70;99.90
59961;DHT22;55902;-37.980;-63.602;2023-07-29T10:22:47;9.70;99.90
59961;DHT22;55902;-37.980;-63.602;2023-07-29T10:25:38;9.70;99.90
59961;DHT22;55902;-37.980;-63.602;2023-07-29T10:28:11;9.70;99.90
59961;DHT22;55902;-37.980;-63.602;2023-07-29T10:30:39;9.60;99.90
59961;DHT22;55902;-37.980;-63.602;2023-07-29T10:33:06;9.60;99.90
59961;DHT22;55902;-37.980;-63.602;2023-07-29T10:35:34;9.60;99.90
59961;DHT22;55902;-37.980;-63.602;2023-07-29T10:38:02;9.60;99.90
59961;DHT22;55902;-37.980;-63.602;2023-07-29T10:40:48;9.70;99.90
59961;DHT22;55902;-37.980;-63.602;2023-07-29T10:43:24;9.80;99.90
59961;DHT22;55902;-37.980;-63.602;2023-07-29T10:45:51;9.80;99.90
59961;DHT22;55902;-37.980;-63.602;2023-07-29T10:53:59;9.70;99.90
59961;DHT22;55902;-37.980;-63.602;2023-07-29T10:56:36;9.70;99.90
59961;DHT22;55902;-37.980;-63.602;2023-07-29T10:59:32;9.70;99.90
59961;DHT22;55902;-37.980;-63.602;2023-07-29T11:02:15;9.70;99.90
59961;DHT22;55902;-37.980;-63.602;2023-07-29T11:04:50;9.60;99.90
59961;DHT22;55902;-37.980;-63.602;2023-07-29T11:07:18;9.60;99.90
59961;DHT22;55902;-37.980;-63.602;2023-07-29T11:12:41;9.60;99.90
59961;DHT22;55902;-37.980;-63.602;2023-07-29T11:15:16;9.50;99.90
59961;DHT22;55902;-37.980;-63.602;2023-07-29T11:17:55;9.60;99.90
59961;DHT22;55902;-37.980;-63.602;2023-07-29T11:20:27;9.60;99.90
59961;DHT22;55902;-37.980;-63.602;2023-07-29T11:22:56;9.60;99.90
59961;DHT22;55902;-37.980;-63.602;2023-07-29T11:25:24;9.60;99.90
59961;DHT22;55902;-37.980;-63.602;2023-07-29T11:27:53;9.60;99.90
59961;DHT22;55902;-37.980;-63.602;2023-07-29T11:30:21;9.60;99.90
59961;DHT22;55902;-37.980;-63.602;2023-07-29T11:32:49;9.70;99.90
59961;DHT22;55902;-37.980;-63.602;2023-07-29T11:35:18;9.60;99.90
59961;DHT22;55902;-37.980;-63.602;2023-07-29T11:37:47;9.60;99.90
59961;DHT22;55902;-37.980;-63.602;2023-07-29T11:40:22;9.60;99.90
59961;DHT22;55902;-37.980;-63.602;2023-07-29T11:42:51;9.70;99.90
59961;DHT22;55902;-37.980;-63.602;2023-07-29T11:45:19;9.70;99.90
59961;DHT22;55902;-37.980;-63.602;2023-07-29T11:47:46;9.70;99.90
59961;DHT22;55902;-37.980;-63.602;2023-07-29T12:00:18;9.90;99.90
59961;DHT22;55902;-37.980;-63.602;2023-07-29T12:02:46;9.90;99.90
59961;DHT22;55902;-37.980;-63.602;2023-07-29T12:05:15;9.90;99.90
59961;DHT22;55902;-37.980;-63.602;2023-07-29T12:07:43;10.00;99.90
59961;DHT22;55902;-37.980;-63.602;2023-07-29T12:10:11;10.00;99.90
59961;DHT22;55902;-37.980;-63.602;2023-07-29T12:12:45;10.00;99.90
59961;DHT22;55902;-37.980;-63.602;2023-07-29T12:15:12;10.00;99.90
59961;DHT22;55902;-37.980;-63.602;2023-07-29T12:17:41;10.00;99.90
59961;DHT22;55902;-37.980;-63.602;2023-07-29T12:20:09;10.10;99.90
59961;DHT22;55902;-37.980;-63.602;2023-07-29T12:22:39;10.10;99.90
59961;DHT22;55902;-37.980;-63.602;2023-07-29T12:25:07;10.20;99.90
59961;DHT22;55902;-37.980;-63.602;2023-07-29T12:27:34;10.40;99.90
59961;DHT22;55902;-37.980;-63.602;2023-07-29T12:30:05;10.70;99.90
59961;DHT22;55902;-37.980;-63.602;2023-07-29T12:32:32;11.00;99.90
59961;DHT22;55902;-37.980;-63.602;2023-07-29T12:34:59;11.30;99.90
59961;DHT22;55902;-37.980;-63.602;2023-07-29T12:37:32;11.60;99.90
59961;DHT22;55902;-37.980;-63.602;2023-07-29T12:39:59;11.70;99.90
59961;DHT22;55902;-37.980;-63.602;2023-07-29T12:42:27;11.60;99.90
59961;DHT22;55902;-37.980;-63.602;2023-07-29T12:44:57;11.50;99.90
59961;DHT22;55902;-37.980;-63.602;2023-07-29T12:47:24;11.50;99.90
59961;DHT22;55902;-37.980;-63.602;2023-07-29T12:49:51;11.50;99.90
59961;DHT22;55902;-37.980;-63.602;2023-07-29T12:52:55;11.60;99.90
59961;DHT22;55902;-37.980;-63.602;2023-07-29T12:55:22;11.90;99.90
59961;DHT22;55902;-37.980;-63.602;2023-07-29T12:57:50;12.10;99.90
59961;DHT22;55902;-37.980;-63.602;2023-07-29T13:00:18;12.30;99.90
59961;DHT22;55902;-37.980;-63.602;2023-07-29T13:02:45;12.60;99.90
59961;DHT22;55902;-37.980;-63.602;2023-07-29T13:05:12;12.80;99.90
59961;DHT22;55902;-37.980;-63.602;2023-07-29T13:07:43;13.10;99.90
59961;DHT22;55902;-37.980;-63.602;2023-07-29T13:10:11;13.20;99.90
59961;DHT22;55902;-37.980;-63.602;2023-07-29T13:12:38;13.30;99.90
59961;DHT22;55902;-37.980;-63.602;2023-07-29T13:15:06;13.40;99.90
59961;DHT22;55902;-37.980;-63.602;2023-07-29T13:17:34;13.60;99.90
59961;DHT22;55902;-37.980;-63.602;2023-07-29T13:20:01;13.90;99.90
59961;DHT22;55902;-37.980;-63.602;2023-07-29T13:22:28;13.90;99.90
59961;DHT22;55902;-37.980;-63.602;2023-07-29T13:24:55;14.10;99.90
59961;DHT22;55902;-37.980;-63.602;2023-07-29T13:27:22;14.30;99.90
59961;DHT22;55902;-37.980;-63.602;2023-07-29T13:29:50;14.30;99.90
59961;DHT22;55902;-37.980;-63.602;2023-07-29T13:32:17;14.40;99.90
59961;DHT22;55902;-37.980;-63.602;2023-07-29T13:38:06;14.60;99.90
59961;DHT22;55902;-37.980;-63.602;2023-07-29T13:40:35;14.60;99.90
59961;DHT22;55902;-37.980;-63.602;2023-07-29T13:43:02;14.60;99.90
59961;DHT22;55902;-37.980;-63.602;2023-07-29T13:45:29;14.90;99.90
59961;DHT22;55902;-37.980;-63.602;2023-07-29T13:47:57;14.90;99.90
59961;DHT22;55902;-37.980;-63.602;2023-07-29T13:50:24;15.00;99.80
59961;DHT22;55902;-37.980;-63.602;2023-07-29T13:52:51;15.20;99.50
59961;DHT22;55902;-37.980;-63.602;2023-07-29T13:55:20;15.20;99.20
59961;DHT22;55902;-37.980;-63.602;2023-07-29T13:57:47;15.40;99.50
59961;DHT22;55902;-37.980;-63.602;2023-07-29T14:00:14;15.40;99.00
59961;DHT22;55902;-37.980;-63.602;2023-07-29T14:02:42;15.60;99.10
59961;DHT22;55902;-37.980;-63.602;2023-07-29T14:05:10;15.70;98.70
59961;DHT22;55902;-37.980;-63.602;2023-07-29T14:07:38;15.90;98.40
59961;DHT22;55902;-37.980;-63.602;2023-07-29T14:10:05;16.10;98.40
59961;DHT22;55902;-37.980;-63.602;2023-07-29T14:12:32;16.30;97.80
59961;DHT22;55902;-37.980;-63.602;2023-07-29T14:25:51;17.00;95.70
59961;DHT22;55902;-37.980;-63.602;2023-07-29T14:28:18;17.00;95.70
59961;DHT22;55902;-37.980;-63.602;2023-07-29T14:30:45;17.20;95.50
59961;DHT22;55902;-37.980;-63.602;2023-07-29T14:33:12;17.50;94.80
59961;DHT22;55902;-37.980;-63.602;2023-07-29T14:35:40;17.60;94.60
59961;DHT22;55902;-37.980;-63.602;2023-07-29T14:38:11;17.90;94.40
59961;DHT22;55902;-37.980;-63.602;2023-07-29T14:40:38;18.00;94.00
59961;DHT22;55902;-37.980;-63.602;2023-07-29T14:43:05;18.20;94.00
59961;DHT22;55902;-37.980;-63.602;2023-07-29T14:45:32;18.50;93.80
59961;DHT22;55902;-37.980;-63.602;2023-07-29T14:47:58;18.40;92.80
59961;DHT22;55902;-37.980;-63.602;2023-07-29T14:50:25;18.40;92.60
59961;DHT22;55902;-37.980;-63.602;2023-07-29T14:52:53;18.60;92.30
59961;DHT22;55902;-37.980;-63.602;2023-07-29T14:55:20;18.90;92.60
59961;DHT22;55902;-37.980;-63.602;2023-07-29T14:57:47;18.90;91.60
59961;DHT22;55902;-37.980;-63.602;2023-07-29T15:00:14;18.80;91.90
59961;DHT22;55902;-37.980;-63.602;2023-07-29T15:02:41;18.90;91.90
59961;DHT22;55902;-37.980;-63.602;2023-07-29T15:05:08;19.20;92.10
59961;DHT22;55902;-37.980;-63.602;2023-07-29T15:07:35;19.40;90.70
59961;DHT22;55902;-37.980;-63.602;2023-07-29T15:10:03;19.50;90.70
59961;DHT22;55902;-37.980;-63.602;2023-07-29T15:12:30;19.60;89.60
59961;DHT22;55902;-37.980;-63.602;2023-07-29T15:14:57;19.60;90.30
59961;DHT22;55902;-37.980;-63.602;2023-07-29T15:17:24;19.50;89.10
59961;DHT22;55902;-37.980;-63.602;2023-07-29T15:19:51;19.20;89.00
59961;DHT22;55902;-37.980;-63.602;2023-07-29T15:22:18;19.50;89.30
59961;DHT22;55902;-37.980;-63.602;2023-07-29T15:24:45;19.70;87.90
59961;DHT22;55902;-37.980;-63.602;2023-07-29T15:27:13;20.00;86.40
59961;DHT22;55902;-37.980;-63.602;2023-07-29T15:29:40;20.30;84.40
59961;DHT22;55902;-37.980;-63.602;2023-07-29T15:32:07;20.70;82.60
59961;DHT22;55902;-37.980;-63.602;2023-07-29T15:34:34;21.00;80.80
59961;DHT22;55902;-37.980;-63.602;2023-07-29T15:37:02;21.20;80.20
59961;DHT22;55902;-37.980;-63.602;2023-07-29T15:39:30;21.60;79.60
59961;DHT22;55902;-37.980;-63.602;2023-07-29T15:41:57;21.60;78.80
59961;DHT22;55902;-37.980;-63.602;2023-07-29T15:44:24;21.60;76.70
59961;DHT22;55902;-37.980;-63.602;2023-07-29T15:46:51;21.70;76.80
59961;DHT22;55902;-37.980;-63.602;2023-07-29T15:49:18;22.00;76.00
59961;DHT22;55902;-37.980;-63.602;2023-07-29T15:51:45;22.30;74.70
59961;DHT22;55902;-37.980;-63.602;2023-07-29T15:54:12;22.30;73.20
59961;DHT22;55902;-37.980;-63.602;2023-07-29T15:56:39;22.20;72.30
59961;DHT22;55902;-37.980;-63.602;2023-07-29T15:59:07;22.30;72.60
59961;DHT22;55902;-37.980;-63.602;2023-07-29T16:01:35;22.50;71.70
59961;DHT22;55902;-37.980;-63.602;2023-07-29T16:04:02;22.40;70.80